createdAt,value
2022-10-05T00:00:20.126Z,7.00
2022-10-05T00:02:47.021Z,5.75
2022-10-05T00:05:21.790Z,5.32
2022-10-05T00:07:48.449Z,5.82
2022-10-05T00:10:16.638Z,6.47
2022-10-05T00:12:44.503Z,5.40
2022-10-05T00:15:12.769Z,5.85
2022-10-05T00:17:39.360Z,5.65
2022-10-05T00:20:16.745Z,6.05
2022-10-05T00:22:42.974Z,5.72
2022-10-05T00:25:21.157Z,5.30
2022-10-05T00:27:54.640Z,4.88
2022-10-05T00:30:21.380Z,5.28
2022-10-05T00:32:48.007Z,5.68
2022-10-05T00:35:15.177Z,5.28
2022-10-05T00:37:41.912Z,5.25
2022-10-05T00:40:18.736Z,4.93
2022-10-05T00:42:44.987Z,5.07
2022-10-05T00:45:18.301Z,5.43
2022-10-05T00:47:47.311Z,5.90
2022-10-05T00:50:13.507Z,5.03
2022-10-05T00:52:46.694Z,4.78
2022-10-05T00:55:35.677Z,4.75
2022-10-05T00:58:08.136Z,5.45
2022-10-05T01:00:38.207Z,5.38
2022-10-05T01:03:10.461Z,5.43
2022-10-05T01:05:36.690Z,4.65
2022-10-05T01:08:08.718Z,5.07
2022-10-05T01:10:51.703Z,5.20
2022-10-05T01:13:17.903Z,5.20
2022-10-05T01:16:04.127Z,5.68
2022-10-05T01:18:39.135Z,5.95
2022-10-05T01:21:14.855Z,5.25
2022-10-05T01:23:59.986Z,4.95
2022-10-05T01:26:26.279Z,5.45
2022-10-05T01:28:58.109Z,5.60
2022-10-05T01:31:27.458Z,6.18
2022-10-05T01:34:04.235Z,5.32
2022-10-05T01:36:39.874Z,4.88
2022-10-05T01:39:41.461Z,5.93
2022-10-05T01:42:13.882Z,6.03
2022-10-05T01:44:54.350Z,5.65
2022-10-05T01:47:22.237Z,6.22
2022-10-05T01:49:48.470Z,5.35
2022-10-05T01:52:24.721Z,6.72
2022-10-05T01:54:51.226Z,5.50
2022-10-05T01:57:23.129Z,6.00
2022-10-05T02:00:07.723Z,5.75
2022-10-05T02:02:36.043Z,5.95
2022-10-05T02:05:09.068Z,5.38
2022-10-05T02:07:50.145Z,5.57
2022-10-05T02:10:28.615Z,5.80
2022-10-05T02:12:59.253Z,5.75
2022-10-05T02:15:45.858Z,5.97
2022-10-05T02:18:19.457Z,6.32
2022-10-05T02:20:46.529Z,6.03
2022-10-05T02:23:17.766Z,6.03
2022-10-05T02:25:46.812Z,5.78
2022-10-05T02:28:15.751Z,6.20
2022-10-05T02:30:44.672Z,6.50
2022-10-05T02:33:13.073Z,6.20
2022-10-05T02:35:39.353Z,6.03
2022-10-05T02:38:28.431Z,5.80
2022-10-05T02:40:58.382Z,5.82
2022-10-05T02:43:42.639Z,6.15
2022-10-05T02:46:08.914Z,6.07
2022-10-05T02:48:54.071Z,6.35
2022-10-05T02:51:23.965Z,5.43
2022-10-05T02:54:10.463Z,5.70
2022-10-05T02:56:48.994Z,5.80
2022-10-05T02:59:19.107Z,5.45
2022-10-05T03:01:45.380Z,6.05
2022-10-05T03:04:34.747Z,6.20
2022-10-05T03:07:10.142Z,5.95
2022-10-05T03:12:05.570Z,5.63
2022-10-05T03:14:50.436Z,5.35
2022-10-05T03:17:21.416Z,5.15
2022-10-05T03:19:50.495Z,5.63
2022-10-05T03:22:22.956Z,5.15
2022-10-05T03:24:55.244Z,5.60
2022-10-05T03:27:24.543Z,6.70
2022-10-05T03:30:11.215Z,5.47
2022-10-05T03:32:50.194Z,5.88
2022-10-05T03:35:16.419Z,6.10
2022-10-05T03:38:01.639Z,6.15
2022-10-05T03:40:36.652Z,5.57
2022-10-05T03:43:06.013Z,4.90
2022-10-05T03:45:41.551Z,5.25
2022-10-05T03:48:25.897Z,5.43
2022-10-05T03:50:52.150Z,6.00
2022-10-05T03:53:19.824Z,5.78
2022-10-05T03:55:49.179Z,5.65
2022-10-05T03:58:22.066Z,6.05
2022-10-05T04:00:51.690Z,5.63
2022-10-05T04:03:47.105Z,5.95
2022-10-05T04:06:13.719Z,5.43
2022-10-05T04:08:43.039Z,5.43
2022-10-05T04:11:14.498Z,5.20
2022-10-05T04:13:56.118Z,5.63
2022-10-05T04:16:24.877Z,5.30
2022-10-05T04:18:56.284Z,5.50
2022-10-05T04:21:29.168Z,5.00
2022-10-05T04:23:59.168Z,5.78
2022-10-05T04:26:48.270Z,5.40
2022-10-05T04:29:19.454Z,5.25
2022-10-05T04:31:52.047Z,5.38
2022-10-05T04:34:36.500Z,5.10
2022-10-05T04:37:04.560Z,5.07
2022-10-05T04:39:44.093Z,5.00
2022-10-05T04:42:10.405Z,4.68
2022-10-05T04:44:44.715Z,5.25
2022-10-05T04:47:37.371Z,5.18
2022-10-05T04:50:06.380Z,4.68
2022-10-05T04:52:40.038Z,5.13
2022-10-05T04:55:18.229Z,5.30
2022-10-05T04:57:47.531Z,4.57
2022-10-05T05:00:28.496Z,4.57
2022-10-05T05:03:00.855Z,5.03
2022-10-05T05:06:05.135Z,4.45
2022-10-05T05:08:47.446Z,4.85
2022-10-05T05:11:33.529Z,5.00
2022-10-05T05:14:11.396Z,4.53
2022-10-05T05:16:41.825Z,4.15
2022-10-05T05:19:08.058Z,3.92
2022-10-05T05:21:37.966Z,4.03
2022-10-05T05:24:20.126Z,4.57
2022-10-05T05:27:09.645Z,3.45
2022-10-05T05:29:35.934Z,2.97
2022-10-05T05:32:21.254Z,3.08
2022-10-05T05:35:05.910Z,2.80
2022-10-05T05:37:35.224Z,2.58
2022-10-05T05:40:13.985Z,2.30
2022-10-05T05:43:00.088Z,1.92
2022-10-05T05:45:26.384Z,2.10
2022-10-05T05:47:54.021Z,1.95
2022-10-05T05:50:32.465Z,2.45
2022-10-05T05:53:03.277Z,2.25
2022-10-05T05:55:31.253Z,2.25
2022-10-05T05:57:59.781Z,2.22
2022-10-05T06:00:32.502Z,2.22
2022-10-05T06:02:58.845Z,2.05
2022-10-05T06:05:28.408Z,2.50
2022-10-05T06:07:55.605Z,2.33
2022-10-05T06:10:26.422Z,2.55
2022-10-05T06:12:58.412Z,2.58
2022-10-05T06:15:40.312Z,2.27
2022-10-05T06:18:11.217Z,2.85
2022-10-05T06:20:42.488Z,2.90
2022-10-05T06:23:20.494Z,2.90
2022-10-05T06:25:56.770Z,2.40
2022-10-05T06:28:24.644Z,3.10
2022-10-05T06:31:06.407Z,3.10
2022-10-05T06:33:45.672Z,2.95
2022-10-05T06:36:38.240Z,2.67
2022-10-05T06:39:07.543Z,3.08
2022-10-05T06:41:52.825Z,3.10
2022-10-05T06:44:22.088Z,3.22
2022-10-05T06:46:48.770Z,2.85
2022-10-05T06:49:21.428Z,2.90
2022-10-05T06:51:56.854Z,3.25
2022-10-05T06:54:26.453Z,3.05
2022-10-05T06:56:58.500Z,3.17
2022-10-05T06:59:40.069Z,3.67
2022-10-05T07:02:10.440Z,3.33
2022-10-05T07:04:53.996Z,3.05
2022-10-05T07:07:45.974Z,3.10
2022-10-05T07:10:24.224Z,4.28
2022-10-05T07:13:09.165Z,3.33
2022-10-05T07:15:49.995Z,3.83
2022-10-05T07:18:35.105Z,2.60
2022-10-05T07:21:10.546Z,3.28
2022-10-05T07:26:09.890Z,2.80
2022-10-05T07:28:52.628Z,3.30
2022-10-05T07:31:28.555Z,3.10
2022-10-05T07:34:09.690Z,3.10
2022-10-05T07:36:59.739Z,3.88
2022-10-05T07:39:48.330Z,3.00
2022-10-05T07:42:50.658Z,2.92
2022-10-05T07:45:27.907Z,3.10
2022-10-05T07:47:55.693Z,2.90
2022-10-05T07:50:35.255Z,3.10
2022-10-05T07:53:04.925Z,2.95
2022-10-05T07:55:36.607Z,2.80
2022-10-05T07:58:02.939Z,2.95
2022-10-05T08:00:43.189Z,2.85
2022-10-05T08:03:35.378Z,2.88
2022-10-05T08:06:03.808Z,3.47
2022-10-05T08:08:41.971Z,3.25
2022-10-05T08:11:13.572Z,3.25
2022-10-05T08:13:48.359Z,3.05
2022-10-05T08:16:16.593Z,2.67
2022-10-05T08:18:56.186Z,3.03
2022-10-05T08:21:35.029Z,3.10
2022-10-05T08:24:18.322Z,3.08
2022-10-05T08:26:59.765Z,3.35
2022-10-05T08:29:29.775Z,2.58
2022-10-05T08:31:58.598Z,3.53
2022-10-05T08:34:38.761Z,3.65
2022-10-05T08:37:08.586Z,3.45
2022-10-05T08:39:40.806Z,3.30
2022-10-05T08:42:16.121Z,3.30
2022-10-05T08:44:42.333Z,3.38
2022-10-05T08:47:11.610Z,3.47
2022-10-05T08:49:56.716Z,4.13
2022-10-05T08:52:41.832Z,3.92
2022-10-05T08:55:22.818Z,3.30
2022-10-05T08:58:07.996Z,3.97
2022-10-05T09:00:40.467Z,3.80
2022-10-05T09:03:15.907Z,3.50
2022-10-05T09:08:23.796Z,3.15
2022-10-05T09:10:50.399Z,2.97
2022-10-05T09:13:25.864Z,3.42
2022-10-05T09:18:21.488Z,2.88
2022-10-05T09:20:52.821Z,3.08
2022-10-05T09:23:19.084Z,2.75
2022-10-05T09:26:05.594Z,2.67
2022-10-05T09:28:34.443Z,2.60
2022-10-05T09:31:16.702Z,2.60
2022-10-05T09:33:55.241Z,2.33
2022-10-05T09:36:40.374Z,2.50
2022-10-05T09:39:25.499Z,2.38
2022-10-05T09:41:51.830Z,2.00
2022-10-05T09:44:22.108Z,1.90
2022-10-05T09:46:48.350Z,2.88
2022-10-05T09:49:32.743Z,3.22
2022-10-05T09:52:08.085Z,2.80
2022-10-05T09:54:46.501Z,2.70
2022-10-05T09:57:23.140Z,2.78
2022-10-05T09:59:52.649Z,3.40
2022-10-05T10:02:38.758Z,2.78
2022-10-05T10:05:20.472Z,3.30
2022-10-05T10:07:58.987Z,2.65
2022-10-05T10:10:41.358Z,2.78
2022-10-05T10:13:16.497Z,2.60
2022-10-05T10:15:57.788Z,2.47
2022-10-05T10:18:39.299Z,2.25
2022-10-05T10:21:05.510Z,2.22
2022-10-05T10:23:31.727Z,1.70
2022-10-05T10:26:16.890Z,2.55
2022-10-05T10:28:43.118Z,2.00
2022-10-05T10:31:28.794Z,2.35
2022-10-05T10:34:14.479Z,2.22
2022-10-05T10:36:59.466Z,2.35
2022-10-05T10:39:37.740Z,2.93
2022-10-05T10:42:03.977Z,2.45
2022-10-05T10:44:42.568Z,2.80
2022-10-05T10:47:12.269Z,2.83
2022-10-05T10:49:38.679Z,3.60
2022-10-05T10:52:05.025Z,2.90
2022-10-05T10:54:42.635Z,2.90
2022-10-05T10:57:25.401Z,3.00
2022-10-05T11:00:12.572Z,2.60
2022-10-05T11:02:49.226Z,3.25
2022-10-05T11:05:25.668Z,3.10
2022-10-05T11:08:10.049Z,3.25
2022-10-05T11:10:36.296Z,4.13
2022-10-05T11:13:11.721Z,2.95
2022-10-05T11:18:15.598Z,3.10
2022-10-05T11:20:44.684Z,3.10
2022-10-05T11:23:29.403Z,3.63
2022-10-05T11:26:01.879Z,3.53
2022-10-05T11:28:36.720Z,3.28
2022-10-05T11:31:21.613Z,2.95
2022-10-05T11:33:58.226Z,4.10
2022-10-05T11:36:50.687Z,2.58
2022-10-05T11:39:37.046Z,3.00
2022-10-05T11:42:09.514Z,3.20
2022-10-05T11:44:54.618Z,3.20
2022-10-05T11:47:32.397Z,3.08
2022-10-05T11:50:20.831Z,3.75
2022-10-05T11:52:47.117Z,3.03
2022-10-05T11:55:16.427Z,2.85
2022-10-05T11:57:47.433Z,2.53
2022-10-05T12:00:21.637Z,2.70
2022-10-05T12:03:03.302Z,2.30
2022-10-05T12:05:36.639Z,2.70
2022-10-05T12:08:14.956Z,2.40
2022-10-05T12:10:41.264Z,2.20
2022-10-05T12:13:15.045Z,2.40
2022-10-05T12:15:41.368Z,2.60
2022-10-05T12:18:10.656Z,2.10
2022-10-05T12:20:40.678Z,2.53
2022-10-05T12:23:33.586Z,2.55
2022-10-05T12:26:05.224Z,2.17
2022-10-05T12:28:43.573Z,2.30
2022-10-05T12:31:20.622Z,2.33
2022-10-05T12:33:46.986Z,2.00
2022-10-05T12:36:59.202Z,1.58
2022-10-05T12:39:40.067Z,1.98
2022-10-05T12:42:11.272Z,2.65
2022-10-05T12:44:56.641Z,2.53
2022-10-05T12:47:35.208Z,1.95
2022-10-05T12:50:10.626Z,2.88
2022-10-05T12:55:03.044Z,2.72
2022-10-05T12:57:48.243Z,2.50
2022-10-05T13:00:19.014Z,2.28
2022-10-05T13:02:50.884Z,2.10
2022-10-05T13:05:19.713Z,2.17
2022-10-05T13:08:06.507Z,2.33
2022-10-05T13:10:51.563Z,2.33
2022-10-05T13:13:17.803Z,2.20
2022-10-05T13:16:04.641Z,2.22
2022-10-05T13:18:33.722Z,2.10
2022-10-05T13:21:04.459Z,2.05
2022-10-05T13:23:38.569Z,2.10
2022-10-05T13:26:10.734Z,2.22
2022-10-05T13:28:37.186Z,2.03
2022-10-05T13:31:09.002Z,2.55
2022-10-05T13:33:41.408Z,2.20
2022-10-05T13:36:15.050Z,2.00
2022-10-05T13:38:42.002Z,2.15
2022-10-05T13:41:26.663Z,1.90
2022-10-05T13:44:05.193Z,2.20
2022-10-05T13:46:40.750Z,2.50
2022-10-05T13:49:13.255Z,2.17
2022-10-05T13:51:42.515Z,1.85
2022-10-05T13:54:20.684Z,2.10
2022-10-05T13:56:52.864Z,2.13
2022-10-05T13:59:29.813Z,2.42
2022-10-05T14:02:05.725Z,1.90
2022-10-05T14:04:43.703Z,2.15
2022-10-05T14:07:22.634Z,2.13
2022-10-05T14:09:49.889Z,2.28
2022-10-05T14:12:20.745Z,1.83
2022-10-05T14:14:47.036Z,1.80
2022-10-05T14:17:15.858Z,2.00
2022-10-05T14:19:46.290Z,1.90
2022-10-05T14:22:14.607Z,2.22
2022-10-05T14:24:50.874Z,2.38
2022-10-05T14:27:18.145Z,1.95
2022-10-05T14:29:44.435Z,2.33
2022-10-05T14:32:14.829Z,1.85
2022-10-05T14:34:45.765Z,2.22
2022-10-05T14:37:26.117Z,2.58
2022-10-05T14:39:57.827Z,3.00
2022-10-05T14:42:25.286Z,2.55
2022-10-05T14:45:11.382Z,2.50
2022-10-05T14:47:45.322Z,2.22
2022-10-05T14:50:17.615Z,2.42
2022-10-05T14:52:51.693Z,2.15
2022-10-05T14:55:27.775Z,2.30
2022-10-05T14:57:59.497Z,2.00
2022-10-05T15:00:26.094Z,2.17
2022-10-05T15:03:17.975Z,2.00
2022-10-05T15:05:59.032Z,1.60
2022-10-05T15:08:45.060Z,1.80
2022-10-05T15:11:20.845Z,1.70
2022-10-05T15:13:48.554Z,1.70
2022-10-05T15:16:22.003Z,1.70
2022-10-05T15:19:15.923Z,1.85
2022-10-05T15:21:57.685Z,1.73
2022-10-05T15:24:26.806Z,2.00
2022-10-05T15:26:54.415Z,2.17
2022-10-05T15:29:42.375Z,1.58
2022-10-05T15:32:28.804Z,1.80
2022-10-05T15:35:14.106Z,1.95
2022-10-05T15:37:42.405Z,1.70
2022-10-05T15:40:28.047Z,2.20
2022-10-05T15:42:58.416Z,3.17
2022-10-05T15:45:32.984Z,1.40
2022-10-05T15:48:01.539Z,1.70
2022-10-05T15:50:55.344Z,2.17
2022-10-05T15:53:25.230Z,2.60
2022-10-05T15:55:54.616Z,2.40
2022-10-05T15:58:21.280Z,1.70
2022-10-05T16:00:51.044Z,1.88
2022-10-05T16:03:50.953Z,1.90
2022-10-05T16:07:04.626Z,1.98
2022-10-05T16:09:36.968Z,1.85
2022-10-05T16:12:14.054Z,1.92
2022-10-05T16:14:46.067Z,1.45
2022-10-05T16:17:32.776Z,2.42
2022-10-05T16:20:17.867Z,1.85
2022-10-05T16:23:07.442Z,1.77
2022-10-05T16:25:36.445Z,1.80
2022-10-05T16:28:05.697Z,1.60
2022-10-05T16:30:52.272Z,1.63
2022-10-05T16:33:23.409Z,1.45
2022-10-05T16:35:49.735Z,1.80
2022-10-05T16:38:26.884Z,1.70
2022-10-05T16:41:02.401Z,1.55
2022-10-05T16:43:44.760Z,1.73
2022-10-05T16:46:27.962Z,1.50
2022-10-05T16:49:00.131Z,1.42
2022-10-05T16:51:45.327Z,1.52
2022-10-05T16:54:14.573Z,1.92
2022-10-05T16:56:46.547Z,1.40
2022-10-05T16:59:18.792Z,1.60
2022-10-05T17:01:56.843Z,1.77
2022-10-05T17:04:32.229Z,1.90
2022-10-05T17:07:06.068Z,1.90
2022-10-05T17:09:44.192Z,2.15
2022-10-05T17:12:17.967Z,2.40
2022-10-05T17:15:13.688Z,2.13
2022-10-05T17:17:49.090Z,1.65
2022-10-05T17:22:57.790Z,1.60
2022-10-05T17:25:34.189Z,2.00
2022-10-05T17:28:20.836Z,1.70
2022-10-05T17:30:53.787Z,1.80
2022-10-05T17:33:20.728Z,1.60
2022-10-05T17:36:12.292Z,1.67
2022-10-05T17:38:45.723Z,2.28
2022-10-05T17:41:11.917Z,1.88
2022-10-05T17:43:38.639Z,1.70
2022-10-05T17:46:09.611Z,2.00
2022-10-05T17:48:41.671Z,1.90
2022-10-05T17:51:45.449Z,2.40
2022-10-05T17:54:40.650Z,2.17
2022-10-05T17:57:06.882Z,1.80
2022-10-05T17:59:51.625Z,1.95
2022-10-05T18:02:30.529Z,2.50
2022-10-05T18:05:06.002Z,2.30
2022-10-05T18:07:33.349Z,2.20
2022-10-05T18:09:59.694Z,2.40
2022-10-05T18:12:28.690Z,2.08
2022-10-05T18:15:07.207Z,2.25
2022-10-05T18:17:40.333Z,1.88
2022-10-05T18:20:21.748Z,2.08
2022-10-05T18:22:50.769Z,1.98
2022-10-05T18:25:25.813Z,2.40
2022-10-05T18:28:00.660Z,2.33
2022-10-05T18:30:31.026Z,1.83
2022-10-05T18:32:57.832Z,1.58
2022-10-05T18:35:42.895Z,2.53
2022-10-05T18:38:27.115Z,1.92
2022-10-05T18:40:53.677Z,2.20
2022-10-05T18:43:22.781Z,2.58
2022-10-05T18:45:55.059Z,2.28
2022-10-05T18:48:27.539Z,2.40
2022-10-05T18:51:06.769Z,2.20
2022-10-05T18:53:59.549Z,1.95
2022-10-05T18:56:36.228Z,1.85
2022-10-05T18:59:24.035Z,1.98
2022-10-05T19:01:59.841Z,2.22
2022-10-05T19:04:26.561Z,2.30
2022-10-05T19:07:11.916Z,2.50
2022-10-05T19:09:47.424Z,1.95
2022-10-05T19:12:21.390Z,2.03
2022-10-05T19:14:54.992Z,3.50
2022-10-05T19:17:21.279Z,2.60
2022-10-05T19:19:47.505Z,2.47
2022-10-05T19:22:16.567Z,2.47
2022-10-05T19:25:08.120Z,2.60
2022-10-05T19:27:55.390Z,2.50
2022-10-05T19:30:27.357Z,2.13
2022-10-05T19:33:10.640Z,2.80
2022-10-05T19:35:58.020Z,2.25
2022-10-05T19:38:31.618Z,2.30
2022-10-05T19:41:14.967Z,3.17
2022-10-05T19:43:53.505Z,1.58
2022-10-05T19:46:20.210Z,1.52
2022-10-05T19:48:52.266Z,1.00
2022-10-05T19:51:30.642Z,0.90
2022-10-05T19:53:58.774Z,1.00
2022-10-05T19:56:26.382Z,1.15
2022-10-05T19:58:56.397Z,1.27
2022-10-05T20:01:24.185Z,0.82
2022-10-05T20:03:51.289Z,0.70
2022-10-05T20:06:18.993Z,0.70
2022-10-05T20:08:46.429Z,0.90
2022-10-05T20:11:17.026Z,1.20
2022-10-05T20:13:47.080Z,0.77
2022-10-05T20:16:35.213Z,0.47
2022-10-05T20:19:43.546Z,0.70
2022-10-05T20:22:28.192Z,0.50
2022-10-05T20:24:55.680Z,0.70
2022-10-05T20:27:36.216Z,0.80
2022-10-05T20:30:02.759Z,0.55
2022-10-05T20:32:30.831Z,0.70
2022-10-05T20:34:57.221Z,0.80
2022-10-05T20:37:23.959Z,0.80
2022-10-05T20:39:53.455Z,0.73
2022-10-05T20:42:21.007Z,0.98
2022-10-05T20:44:49.924Z,1.08
2022-10-05T20:47:19.277Z,1.60
2022-10-05T20:49:45.614Z,0.90
2022-10-05T20:52:14.921Z,1.02
2022-10-05T20:54:41.268Z,0.73
2022-10-05T20:57:08.618Z,0.85
2022-10-05T20:59:35.553Z,0.77
2022-10-05T21:02:02.030Z,0.90
2022-10-05T21:04:39.996Z,1.10
2022-10-05T21:07:07.165Z,0.75
2022-10-05T21:09:33.622Z,0.60
2022-10-05T21:11:59.885Z,0.30
2022-10-05T21:14:30.462Z,0.98
2022-10-05T21:16:57.085Z,0.60
2022-10-05T21:19:23.378Z,0.47
2022-10-05T21:21:49.930Z,0.60
2022-10-05T21:24:17.256Z,1.13
2022-10-05T21:26:44.296Z,0.47
2022-10-05T21:29:12.706Z,0.52
2022-10-05T21:31:39.653Z,0.80
2022-10-05T21:34:06.040Z,0.68
2022-10-05T21:36:32.753Z,0.50
2022-10-05T21:38:59.244Z,0.40
2022-10-05T21:41:25.524Z,0.30
2022-10-05T21:43:51.917Z,0.50
2022-10-05T21:46:20.846Z,0.50
2022-10-05T21:48:47.815Z,0.40
2022-10-05T21:51:16.530Z,0.50
2022-10-05T21:53:45.762Z,0.60
2022-10-05T21:56:14.190Z,0.50
2022-10-05T21:58:43.166Z,0.43
2022-10-05T22:01:09.524Z,0.40
2022-10-05T22:03:35.922Z,0.60
2022-10-05T22:06:03.615Z,0.60
2022-10-05T22:08:31.742Z,0.30
2022-10-05T22:11:08.130Z,0.50
2022-10-05T22:13:40.664Z,0.45
2022-10-05T22:16:07.007Z,0.50
2022-10-05T22:18:33.278Z,0.68
2022-10-05T22:20:59.579Z,0.60
2022-10-05T22:23:25.803Z,0.80
2022-10-05T22:25:52.956Z,0.70
2022-10-05T22:28:19.332Z,0.85
2022-10-05T22:30:46.071Z,0.40
2022-10-05T22:33:13.203Z,0.77
2022-10-05T22:35:39.733Z,0.73
2022-10-05T22:38:06.055Z,0.82
2022-10-05T22:40:32.307Z,0.63
2022-10-05T22:42:58.532Z,0.98
2022-10-05T22:45:30.317Z,0.90
2022-10-05T22:47:58.666Z,1.60
2022-10-05T22:50:24.953Z,2.25
2022-10-05T22:52:52.590Z,1.15
2022-10-05T22:55:18.921Z,1.00
2022-10-05T22:57:45.238Z,1.08
2022-10-05T23:00:12.146Z,1.17
2022-10-05T23:02:39.469Z,0.90
2022-10-05T23:05:06.429Z,1.30
2022-10-05T23:07:43.212Z,1.35
2022-10-05T23:10:11.713Z,1.42
2022-10-05T23:12:38.094Z,1.23
2022-10-05T23:15:05.411Z,1.45
2022-10-05T23:17:36.019Z,0.80
2022-10-05T23:20:03.281Z,1.40
2022-10-05T23:22:29.619Z,1.60
2022-10-05T23:24:55.866Z,1.95
2022-10-05T23:27:22.132Z,1.48
2022-10-05T23:29:50.014Z,1.20
2022-10-05T23:32:16.332Z,1.75
2022-10-05T23:34:42.587Z,1.38
2022-10-05T23:37:08.981Z,1.60
2022-10-05T23:39:35.369Z,1.42
2022-10-05T23:42:01.623Z,3.13
2022-10-05T23:44:28.624Z,1.38
2022-10-05T23:46:54.870Z,1.83
2022-10-05T23:49:21.143Z,1.35
2022-10-05T23:51:47.435Z,2.45
2022-10-05T23:54:13.700Z,1.88
2022-10-05T23:56:39.948Z,1.45
2022-10-05T23:59:06.199Z,1.50
